sensor_id;sensor_type;location;lat;lon;timestamp;temperature;humidity
21085;DHT22;34247;50.064;19.970;2022-09-27T00:00:33;27.80;31.30
21085;DHT22;34247;50.064;19.970;2022-09-27T00:01:37;27.70;31.20
21085;DHT22;34247;50.064;19.970;2022-09-27T00:02:40;27.70;31.30
21085;DHT22;34247;50.064;19.970;2022-09-27T00:03:44;27.80;31.40
21085;DHT22;34247;50.064;19.970;2022-09-27T00:04:47;27.70;31.30
21085;DHT22;34247;50.064;19.970;2022-09-27T00:06:14;27.70;31.40
21085;DHT22;34247;50.064;19.970;2022-09-27T00:07:22;27.70;31.40
21085;DHT22;34247;50.064;19.970;2022-09-27T00:08:26;27.70;31.50
21085;DHT22;34247;50.064;19.970;2022-09-27T00:09:30;27.70;31.50
21085;DHT22;34247;50.064;19.970;2022-09-27T00:10:33;27.60;31.40
21085;DHT22;34247;50.064;19.970;2022-09-27T00:11:39;27.60;31.50
21085;DHT22;34247;50.064;19.970;2022-09-27T00:12:46;27.60;31.50
21085;DHT22;34247;50.064;19.970;2022-09-27T00:13:50;27.60;31.60
21085;DHT22;34247;50.064;19.970;2022-09-27T00:14:54;27.60;31.60
21085;DHT22;34247;50.064;19.970;2022-09-27T00:15:59;27.60;31.70
21085;DHT22;34247;50.064;19.970;2022-09-27T00:17:04;27.60;31.70
21085;DHT22;34247;50.064;19.970;2022-09-27T00:18:08;27.60;31.70
21085;DHT22;34247;50.064;19.970;2022-09-27T00:19:17;27.60;31.70
21085;DHT22;34247;50.064;19.970;2022-09-27T00:20:23;27.50;31.70
21085;DHT22;34247;50.064;19.970;2022-09-27T00:21:28;27.60;31.80
21085;DHT22;34247;50.064;19.970;2022-09-27T00:22:33;27.60;31.80
21085;DHT22;34247;50.064;19.970;2022-09-27T00:23:37;27.50;31.80
21085;DHT22;34247;50.064;19.970;2022-09-27T00:24:41;27.50;31.80
21085;DHT22;34247;50.064;19.970;2022-09-27T00:25:58;27.50;31.80
21085;DHT22;34247;50.064;19.970;2022-09-27T00:27:02;27.50;31.80
21085;DHT22;34247;50.064;19.970;2022-09-27T00:28:06;27.50;31.90
21085;DHT22;34247;50.064;19.970;2022-09-27T00:29:10;27.50;31.90
21085;DHT22;34247;50.064;19.970;2022-09-27T00:30:13;27.50;31.90
21085;DHT22;34247;50.064;19.970;2022-09-27T00:31:25;27.50;31.90
21085;DHT22;34247;50.064;19.970;2022-09-27T00:32:32;27.50;32.10
21085;DHT22;34247;50.064;19.970;2022-09-27T00:33:36;27.50;31.90
21085;DHT22;34247;50.064;19.970;2022-09-27T00:34:40;27.50;31.90
21085;DHT22;34247;50.064;19.970;2022-09-27T00:35:44;27.50;31.90
21085;DHT22;34247;50.064;19.970;2022-09-27T00:36:48;27.50;32.10
21085;DHT22;34247;50.064;19.970;2022-09-27T00:37:52;27.50;32.00
21085;DHT22;34247;50.064;19.970;2022-09-27T00:38:57;27.40;32.00
21085;DHT22;34247;50.064;19.970;2022-09-27T00:40:04;27.50;31.90
21085;DHT22;34247;50.064;19.970;2022-09-27T00:41:17;27.40;31.90
21085;DHT22;34247;50.064;19.970;2022-09-27T00:42:23;27.40;32.00
21085;DHT22;34247;50.064;19.970;2022-09-27T00:43:43;27.40;32.00
21085;DHT22;34247;50.064;19.970;2022-09-27T00:45:10;27.40;32.10
21085;DHT22;34247;50.064;19.970;2022-09-27T00:46:38;27.30;32.10
21085;DHT22;34247;50.064;19.970;2022-09-27T00:47:59;27.30;32.10
21085;DHT22;34247;50.064;19.970;2022-09-27T00:49:27;27.30;32.20
21085;DHT22;34247;50.064;19.970;2022-09-27T00:50:40;27.30;32.20
21085;DHT22;34247;50.064;19.970;2022-09-27T00:51:51;27.30;32.30
21085;DHT22;34247;50.064;19.970;2022-09-27T00:54:34;27.30;32.40
21085;DHT22;34247;50.064;19.970;2022-09-27T00:56:02;27.30;32.40
21085;DHT22;34247;50.064;19.970;2022-09-27T00:57:11;27.30;32.40
21085;DHT22;34247;50.064;19.970;2022-09-27T00:58:17;27.20;32.30
21085;DHT22;34247;50.064;19.970;2022-09-27T00:59:29;27.30;32.40
21085;DHT22;34247;50.064;19.970;2022-09-27T01:00:41;27.30;32.40
21085;DHT22;34247;50.064;19.970;2022-09-27T01:01:49;27.30;32.40
21085;DHT22;34247;50.064;19.970;2022-09-27T01:02:54;27.30;32.40
21085;DHT22;34247;50.064;19.970;2022-09-27T01:04:08;27.30;32.40
21085;DHT22;34247;50.064;19.970;2022-09-27T01:05:16;27.20;32.30
21085;DHT22;34247;50.064;19.970;2022-09-27T01:06:23;27.30;32.30
21085;DHT22;34247;50.064;19.970;2022-09-27T01:07:27;27.20;32.20
21085;DHT22;34247;50.064;19.970;2022-09-27T01:08:31;27.30;32.20
21085;DHT22;34247;50.064;19.970;2022-09-27T01:09:35;27.20;31.90
21085;DHT22;34247;50.064;19.970;2022-09-27T01:10:50;27.20;32.10
21085;DHT22;34247;50.064;19.970;2022-09-27T01:12:24;27.20;32.00
21085;DHT22;34247;50.064;19.970;2022-09-27T01:14:19;27.20;32.00
21085;DHT22;34247;50.064;19.970;2022-09-27T01:15:52;27.20;32.00
21085;DHT22;34247;50.064;19.970;2022-09-27T01:18:47;27.20;32.10
21085;DHT22;34247;50.064;19.970;2022-09-27T01:22:10;27.10;32.10
21085;DHT22;34247;50.064;19.970;2022-09-27T01:26:44;27.10;32.10
21085;DHT22;34247;50.064;19.970;2022-09-27T01:31:27;27.10;31.90
21085;DHT22;34247;50.064;19.970;2022-09-27T01:40:10;27.00;31.80
21085;DHT22;34247;50.064;19.970;2022-09-27T01:41:28;27.00;31.90
21085;DHT22;34247;50.064;19.970;2022-09-27T01:42:58;27.00;32.00
21085;DHT22;34247;50.064;19.970;2022-09-27T01:45:32;27.00;32.00
21085;DHT22;34247;50.064;19.970;2022-09-27T01:46:48;27.00;32.00
21085;DHT22;34247;50.064;19.970;2022-09-27T01:48:00;26.90;32.00
21085;DHT22;34247;50.064;19.970;2022-09-27T01:49:11;26.90;32.00
21085;DHT22;34247;50.064;19.970;2022-09-27T01:51:54;26.90;32.00
21085;DHT22;34247;50.064;19.970;2022-09-27T01:53:27;26.90;32.10
21085;DHT22;34247;50.064;19.970;2022-09-27T01:54:53;27.00;32.00
21085;DHT22;34247;50.064;19.970;2022-09-27T01:56:05;26.90;32.00
21085;DHT22;34247;50.064;19.970;2022-09-27T01:57:19;26.90;32.00
21085;DHT22;34247;50.064;19.970;2022-09-27T01:59:20;26.90;32.10
21085;DHT22;34247;50.064;19.970;2022-09-27T02:00:09;26.90;32.10
21085;DHT22;34247;50.064;19.970;2022-09-27T02:01:15;26.90;32.10
21085;DHT22;34247;50.064;19.970;2022-09-27T02:02:24;26.90;32.10
21085;DHT22;34247;50.064;19.970;2022-09-27T02:03:35;26.90;32.10
21085;DHT22;34247;50.064;19.970;2022-09-27T02:04:43;26.90;32.20
21085;DHT22;34247;50.064;19.970;2022-09-27T02:05:56;26.90;32.20
21085;DHT22;34247;50.064;19.970;2022-09-27T02:09:07;26.90;32.10
21085;DHT22;34247;50.064;19.970;2022-09-27T02:10:24;26.90;32.00
21085;DHT22;34247;50.064;19.970;2022-09-27T02:11:35;26.90;31.80
21085;DHT22;34247;50.064;19.970;2022-09-27T02:12:53;26.90;31.90
21085;DHT22;34247;50.064;19.970;2022-09-27T02:15:55;26.90;31.90
21085;DHT22;34247;50.064;19.970;2022-09-27T02:17:07;26.90;31.80
21085;DHT22;34247;50.064;19.970;2022-09-27T02:18:49;26.90;31.80
21085;DHT22;34247;50.064;19.970;2022-09-27T02:20:17;26.80;31.80
21085;DHT22;34247;50.064;19.970;2022-09-27T02:21:52;26.80;31.90
21085;DHT22;34247;50.064;19.970;2022-09-27T02:24:47;26.70;32.10
21085;DHT22;34247;50.064;19.970;2022-09-27T02:26:00;26.70;32.00
21085;DHT22;34247;50.064;19.970;2022-09-27T02:27:46;26.80;31.90
21085;DHT22;34247;50.064;19.970;2022-09-27T02:28:59;26.80;31.90
21085;DHT22;34247;50.064;19.970;2022-09-27T02:30:12;26.70;31.80
21085;DHT22;34247;50.064;19.970;2022-09-27T02:31:17;26.70;32.00
21085;DHT22;34247;50.064;19.970;2022-09-27T02:32:22;26.70;32.10
21085;DHT22;34247;50.064;19.970;2022-09-27T02:33:30;26.70;32.10
21085;DHT22;34247;50.064;19.970;2022-09-27T02:34:42;26.70;32.10
21085;DHT22;34247;50.064;19.970;2022-09-27T02:35:47;26.60;31.90
21085;DHT22;34247;50.064;19.970;2022-09-27T02:36:51;26.60;32.00
21085;DHT22;34247;50.064;19.970;2022-09-27T02:37:56;26.60;31.90
21085;DHT22;34247;50.064;19.970;2022-09-27T02:39:01;26.60;31.90
21085;DHT22;34247;50.064;19.970;2022-09-27T02:40:05;26.60;31.80
21085;DHT22;34247;50.064;19.970;2022-09-27T02:41:18;26.60;31.80
21085;DHT22;34247;50.064;19.970;2022-09-27T02:42:24;26.60;31.80
21085;DHT22;34247;50.064;19.970;2022-09-27T02:43:30;26.60;31.80
21085;DHT22;34247;50.064;19.970;2022-09-27T02:44:36;26.60;31.70
21085;DHT22;34247;50.064;19.970;2022-09-27T02:46:09;26.60;31.70
21085;DHT22;34247;50.064;19.970;2022-09-27T02:50:43;26.40;32.00
21085;DHT22;34247;50.064;19.970;2022-09-27T02:52:28;26.40;32.10
21085;DHT22;34247;50.064;19.970;2022-09-27T03:01:34;26.30;32.00
21085;DHT22;34247;50.064;19.970;2022-09-27T03:03:13;26.30;32.00
21085;DHT22;34247;50.064;19.970;2022-09-27T03:04:54;26.30;32.20
21085;DHT22;34247;50.064;19.970;2022-09-27T03:06:08;26.30;32.30
21085;DHT22;34247;50.064;19.970;2022-09-27T03:07:15;26.30;32.40
21085;DHT22;34247;50.064;19.970;2022-09-27T03:08:19;26.30;32.50
21085;DHT22;34247;50.064;19.970;2022-09-27T03:09:28;26.30;32.50
21085;DHT22;34247;50.064;19.970;2022-09-27T03:10:42;26.30;32.50
21085;DHT22;34247;50.064;19.970;2022-09-27T03:11:45;26.30;32.50
21085;DHT22;34247;50.064;19.970;2022-09-27T03:12:49;26.30;32.50
21085;DHT22;34247;50.064;19.970;2022-09-27T03:13:54;26.30;32.50
21085;DHT22;34247;50.064;19.970;2022-09-27T03:15:10;26.30;32.50
21085;DHT22;34247;50.064;19.970;2022-09-27T03:16:14;26.30;32.40
21085;DHT22;34247;50.064;19.970;2022-09-27T03:17:18;26.30;32.50
21085;DHT22;34247;50.064;19.970;2022-09-27T03:18:21;26.40;32.50
21085;DHT22;34247;50.064;19.970;2022-09-27T03:19:26;26.30;32.50
21085;DHT22;34247;50.064;19.970;2022-09-27T03:20:30;26.30;32.60
21085;DHT22;34247;50.064;19.970;2022-09-27T03:21:33;26.30;32.60
21085;DHT22;34247;50.064;19.970;2022-09-27T03:22:37;26.30;32.60
21085;DHT22;34247;50.064;19.970;2022-09-27T03:23:41;26.30;32.60
21085;DHT22;34247;50.064;19.970;2022-09-27T03:24:45;26.30;32.70
21085;DHT22;34247;50.064;19.970;2022-09-27T03:25:49;26.30;32.60
21085;DHT22;34247;50.064;19.970;2022-09-27T03:26:52;26.30;32.60
21085;DHT22;34247;50.064;19.970;2022-09-27T03:27:56;26.30;32.50
21085;DHT22;34247;50.064;19.970;2022-09-27T03:28:59;26.30;32.60
21085;DHT22;34247;50.064;19.970;2022-09-27T03:30:04;26.30;32.60
21085;DHT22;34247;50.064;19.970;2022-09-27T03:31:08;26.30;32.60
21085;DHT22;34247;50.064;19.970;2022-09-27T03:32:12;26.30;32.70
21085;DHT22;34247;50.064;19.970;2022-09-27T03:33:16;26.30;32.70
21085;DHT22;34247;50.064;19.970;2022-09-27T03:34:19;26.40;32.80
21085;DHT22;34247;50.064;19.970;2022-09-27T03:35:24;26.40;32.80
21085;DHT22;34247;50.064;19.970;2022-09-27T03:36:28;26.40;32.80
21085;DHT22;34247;50.064;19.970;2022-09-27T03:37:31;26.40;32.60
21085;DHT22;34247;50.064;19.970;2022-09-27T03:38:34;26.40;33.30
21085;DHT22;34247;50.064;19.970;2022-09-27T03:39:38;26.40;32.50
21085;DHT22;34247;50.064;19.970;2022-09-27T03:40:46;26.40;32.20
21085;DHT22;34247;50.064;19.970;2022-09-27T03:41:50;26.40;32.30
21085;DHT22;34247;50.064;19.970;2022-09-27T03:42:54;26.40;32.40
21085;DHT22;34247;50.064;19.970;2022-09-27T03:43:57;26.40;32.30
21085;DHT22;34247;50.064;19.970;2022-09-27T03:45:02;26.40;32.40
21085;DHT22;34247;50.064;19.970;2022-09-27T03:46:05;26.40;32.50
21085;DHT22;34247;50.064;19.970;2022-09-27T03:47:09;26.30;32.50
21085;DHT22;34247;50.064;19.970;2022-09-27T03:48:13;26.40;32.60
21085;DHT22;34247;50.064;19.970;2022-09-27T03:49:16;26.40;32.60
21085;DHT22;34247;50.064;19.970;2022-09-27T03:50:20;26.40;32.60
21085;DHT22;34247;50.064;19.970;2022-09-27T03:51:24;26.40;32.60
21085;DHT22;34247;50.064;19.970;2022-09-27T03:52:27;26.40;32.60
21085;DHT22;34247;50.064;19.970;2022-09-27T03:53:32;26.40;32.50
21085;DHT22;34247;50.064;19.970;2022-09-27T03:54:35;26.40;32.40
21085;DHT22;34247;50.064;19.970;2022-09-27T03:55:39;26.40;32.30
21085;DHT22;34247;50.064;19.970;2022-09-27T03:56:43;26.40;32.40
21085;DHT22;34247;50.064;19.970;2022-09-27T03:57:47;26.40;32.50
21085;DHT22;34247;50.064;19.970;2022-09-27T03:58:50;26.40;32.50
21085;DHT22;34247;50.064;19.970;2022-09-27T03:59:54;26.40;32.50
21085;DHT22;34247;50.064;19.970;2022-09-27T04:00:57;26.40;32.50
21085;DHT22;34247;50.064;19.970;2022-09-27T04:02:01;26.40;32.40
21085;DHT22;34247;50.064;19.970;2022-09-27T04:03:04;26.40;32.40
21085;DHT22;34247;50.064;19.970;2022-09-27T04:04:08;26.40;32.30
21085;DHT22;34247;50.064;19.970;2022-09-27T04:05:13;26.30;32.30
21085;DHT22;34247;50.064;19.970;2022-09-27T04:06:17;26.40;32.40
21085;DHT22;34247;50.064;19.970;2022-09-27T04:07:21;26.30;32.40
21085;DHT22;34247;50.064;19.970;2022-09-27T04:08:26;26.30;32.40
21085;DHT22;34247;50.064;19.970;2022-09-27T04:09:30;26.40;32.40
21085;DHT22;34247;50.064;19.970;2022-09-27T04:10:34;26.30;32.30
21085;DHT22;34247;50.064;19.970;2022-09-27T04:11:38;26.40;32.20
21085;DHT22;34247;50.064;19.970;2022-09-27T04:12:43;26.40;32.00
21085;DHT22;34247;50.064;19.970;2022-09-27T04:13:47;26.40;32.00
21085;DHT22;34247;50.064;19.970;2022-09-27T04:14:51;26.40;32.00
21085;DHT22;34247;50.064;19.970;2022-09-27T04:15:54;26.30;32.10
21085;DHT22;34247;50.064;19.970;2022-09-27T04:16:58;26.40;32.30
21085;DHT22;34247;50.064;19.970;2022-09-27T04:18:01;26.30;32.30
21085;DHT22;34247;50.064;19.970;2022-09-27T04:19:06;26.30;32.30
21085;DHT22;34247;50.064;19.970;2022-09-27T04:20:11;26.30;32.40
21085;DHT22;34247;50.064;19.970;2022-09-27T04:21:14;26.30;32.40
21085;DHT22;34247;50.064;19.970;2022-09-27T04:22:18;26.30;32.40
21085;DHT22;34247;50.064;19.970;2022-09-27T04:23:21;26.30;32.40
21085;DHT22;34247;50.064;19.970;2022-09-27T04:24:31;26.30;32.20
21085;DHT22;34247;50.064;19.970;2022-09-27T04:25:35;26.30;32.10
21085;DHT22;34247;50.064;19.970;2022-09-27T04:26:41;26.30;32.20
21085;DHT22;34247;50.064;19.970;2022-09-27T04:27:46;26.30;32.10
21085;DHT22;34247;50.064;19.970;2022-09-27T04:28:51;26.30;32.10
21085;DHT22;34247;50.064;19.970;2022-09-27T04:29:56;26.30;31.80
21085;DHT22;34247;50.064;19.970;2022-09-27T04:31:00;26.30;31.90
21085;DHT22;34247;50.064;19.970;2022-09-27T04:32:04;26.30;32.00
21085;DHT22;34247;50.064;19.970;2022-09-27T04:33:07;26.30;32.10
21085;DHT22;34247;50.064;19.970;2022-09-27T04:34:11;26.20;32.10
21085;DHT22;34247;50.064;19.970;2022-09-27T04:35:14;26.20;32.10
21085;DHT22;34247;50.064;19.970;2022-09-27T04:36:36;26.20;32.20
21085;DHT22;34247;50.064;19.970;2022-09-27T04:37:40;26.20;32.10
21085;DHT22;34247;50.064;19.970;2022-09-27T04:38:45;26.20;32.00
21085;DHT22;34247;50.064;19.970;2022-09-27T04:39:50;26.20;32.00
21085;DHT22;34247;50.064;19.970;2022-09-27T04:40:54;26.20;32.00
21085;DHT22;34247;50.064;19.970;2022-09-27T04:41:58;26.10;32.00
21085;DHT22;34247;50.064;19.970;2022-09-27T04:43:01;26.10;32.10
21085;DHT22;34247;50.064;19.970;2022-09-27T04:44:06;26.10;31.90
21085;DHT22;34247;50.064;19.970;2022-09-27T04:45:10;26.10;31.90
21085;DHT22;34247;50.064;19.970;2022-09-27T04:46:15;26.10;31.90
21085;DHT22;34247;50.064;19.970;2022-09-27T04:47:19;26.20;31.80
21085;DHT22;34247;50.064;19.970;2022-09-27T04:48:23;26.10;31.70
21085;DHT22;34247;50.064;19.970;2022-09-27T04:49:26;26.10;31.90
21085;DHT22;34247;50.064;19.970;2022-09-27T04:50:30;26.10;31.90
21085;DHT22;34247;50.064;19.970;2022-09-27T04:51:38;26.10;32.00
21085;DHT22;34247;50.064;19.970;2022-09-27T04:52:42;26.10;32.10
21085;DHT22;34247;50.064;19.970;2022-09-27T04:53:46;26.00;32.10
21085;DHT22;34247;50.064;19.970;2022-09-27T04:54:50;26.00;32.10
21085;DHT22;34247;50.064;19.970;2022-09-27T04:55:54;26.00;32.00
21085;DHT22;34247;50.064;19.970;2022-09-27T04:56:57;26.00;32.10
21085;DHT22;34247;50.064;19.970;2022-09-27T04:58:01;26.00;32.10
21085;DHT22;34247;50.064;19.970;2022-09-27T04:59:05;26.00;32.20
21085;DHT22;34247;50.064;19.970;2022-09-27T05:00:13;26.00;32.20
21085;DHT22;34247;50.064;19.970;2022-09-27T05:01:17;26.10;32.20
21085;DHT22;34247;50.064;19.970;2022-09-27T05:02:20;26.10;32.00
21085;DHT22;34247;50.064;19.970;2022-09-27T05:03:24;26.10;31.90
21085;DHT22;34247;50.064;19.970;2022-09-27T05:04:28;26.10;32.00
21085;DHT22;34247;50.064;19.970;2022-09-27T05:05:32;26.10;31.90
21085;DHT22;34247;50.064;19.970;2022-09-27T05:06:35;26.10;32.00
21085;DHT22;34247;50.064;19.970;2022-09-27T05:07:39;26.00;32.00
21085;DHT22;34247;50.064;19.970;2022-09-27T05:08:42;26.00;32.10
21085;DHT22;34247;50.064;19.970;2022-09-27T05:09:47;26.00;32.10
21085;DHT22;34247;50.064;19.970;2022-09-27T05:10:51;26.00;32.10
21085;DHT22;34247;50.064;19.970;2022-09-27T05:11:56;26.00;32.10
21085;DHT22;34247;50.064;19.970;2022-09-27T05:12:59;26.00;32.10
21085;DHT22;34247;50.064;19.970;2022-09-27T05:14:04;26.00;32.20
21085;DHT22;34247;50.064;19.970;2022-09-27T05:15:08;26.00;32.10
21085;DHT22;34247;50.064;19.970;2022-09-27T05:16:11;26.00;32.20
21085;DHT22;34247;50.064;19.970;2022-09-27T05:17:15;26.00;32.20
21085;DHT22;34247;50.064;19.970;2022-09-27T05:18:21;26.10;32.40
21085;DHT22;34247;50.064;19.970;2022-09-27T05:19:25;26.10;32.30
21085;DHT22;34247;50.064;19.970;2022-09-27T05:20:28;26.10;32.40
21085;DHT22;34247;50.064;19.970;2022-09-27T05:21:32;26.10;32.50
21085;DHT22;34247;50.064;19.970;2022-09-27T05:22:35;26.10;32.60
21085;DHT22;34247;50.064;19.970;2022-09-27T05:23:40;26.10;32.50
21085;DHT22;34247;50.064;19.970;2022-09-27T05:24:49;26.10;32.50
21085;DHT22;34247;50.064;19.970;2022-09-27T05:25:53;26.10;32.50
21085;DHT22;34247;50.064;19.970;2022-09-27T05:27:00;26.10;32.40
21085;DHT22;34247;50.064;19.970;2022-09-27T05:28:04;26.10;32.40
21085;DHT22;34247;50.064;19.970;2022-09-27T05:29:08;26.10;32.30
21085;DHT22;34247;50.064;19.970;2022-09-27T05:30:12;26.10;32.30
21085;DHT22;34247;50.064;19.970;2022-09-27T05:31:15;26.10;32.30
21085;DHT22;34247;50.064;19.970;2022-09-27T05:32:19;26.10;32.30
21085;DHT22;34247;50.064;19.970;2022-09-27T05:33:23;26.10;32.20
21085;DHT22;34247;50.064;19.970;2022-09-27T05:34:26;26.10;32.20
21085;DHT22;34247;50.064;19.970;2022-09-27T05:35:30;26.10;32.30
21085;DHT22;34247;50.064;19.970;2022-09-27T05:36:35;26.10;32.40
21085;DHT22;34247;50.064;19.970;2022-09-27T05:37:39;26.10;32.50
21085;DHT22;34247;50.064;19.970;2022-09-27T05:38:43;26.10;32.50
21085;DHT22;34247;50.064;19.970;2022-09-27T05:39:47;26.10;32.50
21085;DHT22;34247;50.064;19.970;2022-09-27T05:40:52;26.10;32.60
21085;DHT22;34247;50.064;19.970;2022-09-27T05:41:55;26.10;32.60
21085;DHT22;34247;50.064;19.970;2022-09-27T05:42:59;26.10;32.60
21085;DHT22;34247;50.064;19.970;2022-09-27T05:44:03;26.10;32.60
21085;DHT22;34247;50.064;19.970;2022-09-27T05:45:11;26.10;32.60
21085;DHT22;34247;50.064;19.970;2022-09-27T05:46:15;26.20;32.60
21085;DHT22;34247;50.064;19.970;2022-09-27T05:47:18;26.20;32.70
21085;DHT22;34247;50.064;19.970;2022-09-27T05:48:22;26.20;32.60
21085;DHT22;34247;50.064;19.970;2022-09-27T05:49:25;26.20;32.70
21085;DHT22;34247;50.064;19.970;2022-09-27T05:50:30;26.20;32.50
21085;DHT22;34247;50.064;19.970;2022-09-27T05:51:35;26.30;32.60
21085;DHT22;34247;50.064;19.970;2022-09-27T05:52:39;26.20;32.50
21085;DHT22;34247;50.064;19.970;2022-09-27T05:53:42;26.30;32.50
21085;DHT22;34247;50.064;19.970;2022-09-27T05:54:46;26.30;32.50
21085;DHT22;34247;50.064;19.970;2022-09-27T05:55:50;26.30;32.50
21085;DHT22;34247;50.064;19.970;2022-09-27T05:56:55;26.30;32.40
21085;DHT22;34247;50.064;19.970;2022-09-27T05:58:05;26.30;32.40
21085;DHT22;34247;50.064;19.970;2022-09-27T05:59:10;26.30;32.40
21085;DHT22;34247;50.064;19.970;2022-09-27T06:00:14;26.30;32.50
21085;DHT22;34247;50.064;19.970;2022-09-27T06:01:18;26.30;32.50
21085;DHT22;34247;50.064;19.970;2022-09-27T06:02:22;26.40;32.50
21085;DHT22;34247;50.064;19.970;2022-09-27T06:03:26;26.40;32.40
21085;DHT22;34247;50.064;19.970;2022-09-27T06:04:29;26.40;32.40
21085;DHT22;34247;50.064;19.970;2022-09-27T06:05:37;26.40;32.40
21085;DHT22;34247;50.064;19.970;2022-09-27T06:06:41;26.40;32.40
21085;DHT22;34247;50.064;19.970;2022-09-27T06:07:46;26.40;32.40
21085;DHT22;34247;50.064;19.970;2022-09-27T06:08:52;26.40;32.30
21085;DHT22;34247;50.064;19.970;2022-09-27T06:09:55;26.40;32.30
21085;DHT22;34247;50.064;19.970;2022-09-27T06:11:01;26.40;32.40
21085;DHT22;34247;50.064;19.970;2022-09-27T06:12:09;26.40;32.30
21085;DHT22;34247;50.064;19.970;2022-09-27T06:13:15;26.40;32.30
21085;DHT22;34247;50.064;19.970;2022-09-27T06:14:20;26.40;32.30
21085;DHT22;34247;50.064;19.970;2022-09-27T06:15:24;26.40;32.30
21085;DHT22;34247;50.064;19.970;2022-09-27T06:16:27;26.50;32.30
21085;DHT22;34247;50.064;19.970;2022-09-27T06:17:33;26.50;32.30
21085;DHT22;34247;50.064;19.970;2022-09-27T06:18:39;26.50;32.30
21085;DHT22;34247;50.064;19.970;2022-09-27T06:19:47;26.50;32.40
21085;DHT22;34247;50.064;19.970;2022-09-27T06:20:51;26.50;32.30
21085;DHT22;34247;50.064;19.970;2022-09-27T06:21:54;26.50;32.10
21085;DHT22;34247;50.064;19.970;2022-09-27T06:23:15;26.50;32.10
21085;DHT22;34247;50.064;19.970;2022-09-27T06:24:21;26.50;31.80
21085;DHT22;34247;50.064;19.970;2022-09-27T06:25:25;26.50;32.00
21085;DHT22;34247;50.064;19.970;2022-09-27T06:26:29;26.50;32.00
21085;DHT22;34247;50.064;19.970;2022-09-27T06:27:32;26.50;32.00
21085;DHT22;34247;50.064;19.970;2022-09-27T06:28:37;26.50;31.90
21085;DHT22;34247;50.064;19.970;2022-09-27T06:29:40;26.60;31.70
21085;DHT22;34247;50.064;19.970;2022-09-27T06:30:48;26.60;31.80
21085;DHT22;34247;50.064;19.970;2022-09-27T06:31:55;26.60;31.80
21085;DHT22;34247;50.064;19.970;2022-09-27T06:33:02;26.60;31.80
21085;DHT22;34247;50.064;19.970;2022-09-27T06:34:05;26.60;31.90
21085;DHT22;34247;50.064;19.970;2022-09-27T06:35:11;26.60;31.90
21085;DHT22;34247;50.064;19.970;2022-09-27T06:36:14;26.60;31.90
21085;DHT22;34247;50.064;19.970;2022-09-27T06:37:26;26.60;32.00
21085;DHT22;34247;50.064;19.970;2022-09-27T06:38:30;26.60;31.90
21085;DHT22;34247;50.064;19.970;2022-09-27T06:39:38;26.60;32.00
21085;DHT22;34247;50.064;19.970;2022-09-27T06:40:43;26.70;32.10
21085;DHT22;34247;50.064;19.970;2022-09-27T06:41:48;26.60;32.00
21085;DHT22;34247;50.064;19.970;2022-09-27T06:43:04;26.70;32.00
21085;DHT22;34247;50.064;19.970;2022-09-27T06:44:10;26.70;31.90
21085;DHT22;34247;50.064;19.970;2022-09-27T06:45:14;26.80;31.50
21085;DHT22;34247;50.064;19.970;2022-09-27T06:46:18;26.80;31.60
21085;DHT22;34247;50.064;19.970;2022-09-27T06:47:22;26.80;31.70
21085;DHT22;34247;50.064;19.970;2022-09-27T06:48:25;26.80;31.70
21085;DHT22;34247;50.064;19.970;2022-09-27T06:49:29;26.80;31.60
21085;DHT22;34247;50.064;19.970;2022-09-27T06:50:35;26.80;31.70
21085;DHT22;34247;50.064;19.970;2022-09-27T06:51:40;26.80;31.60
21085;DHT22;34247;50.064;19.970;2022-09-27T06:52:48;26.80;31.60
21085;DHT22;34247;50.064;19.970;2022-09-27T06:53:52;26.80;31.90
21085;DHT22;34247;50.064;19.970;2022-09-27T06:54:55;26.80;31.90
21085;DHT22;34247;50.064;19.970;2022-09-27T06:55:59;26.80;31.90
21085;DHT22;34247;50.064;19.970;2022-09-27T06:57:04;26.80;31.60
21085;DHT22;34247;50.064;19.970;2022-09-27T06:58:10;26.90;31.70
21085;DHT22;34247;50.064;19.970;2022-09-27T06:59:32;26.90;32.40
21085;DHT22;34247;50.064;19.970;2022-09-27T07:00:54;26.90;31.70
21085;DHT22;34247;50.064;19.970;2022-09-27T07:01:59;26.90;31.70
21085;DHT22;34247;50.064;19.970;2022-09-27T07:03:03;26.90;31.70
21085;DHT22;34247;50.064;19.970;2022-09-27T07:04:09;26.90;31.90
21085;DHT22;34247;50.064;19.970;2022-09-27T07:05:13;26.90;31.80
21085;DHT22;34247;50.064;19.970;2022-09-27T07:06:19;26.90;32.00
21085;DHT22;34247;50.064;19.970;2022-09-27T07:07:27;26.90;31.90
21085;DHT22;34247;50.064;19.970;2022-09-27T07:08:31;26.90;31.80
21085;DHT22;34247;50.064;19.970;2022-09-27T07:09:36;27.00;31.90
21085;DHT22;34247;50.064;19.970;2022-09-27T07:10:42;27.00;31.80
21085;DHT22;34247;50.064;19.970;2022-09-27T07:11:45;27.00;31.80
21085;DHT22;34247;50.064;19.970;2022-09-27T07:12:49;27.10;31.70
21085;DHT22;34247;50.064;19.970;2022-09-27T07:13:54;27.10;31.70
21085;DHT22;34247;50.064;19.970;2022-09-27T07:14:58;27.10;31.70
21085;DHT22;34247;50.064;19.970;2022-09-27T07:16:02;27.10;31.80
21085;DHT22;34247;50.064;19.970;2022-09-27T07:17:06;27.10;31.90
21085;DHT22;34247;50.064;19.970;2022-09-27T07:18:10;27.20;31.90
21085;DHT22;34247;50.064;19.970;2022-09-27T07:19:14;27.20;31.90
21085;DHT22;34247;50.064;19.970;2022-09-27T07:20:18;27.20;31.90
21085;DHT22;34247;50.064;19.970;2022-09-27T07:21:21;27.20;31.90
21085;DHT22;34247;50.064;19.970;2022-09-27T07:22:26;27.30;32.00
21085;DHT22;34247;50.064;19.970;2022-09-27T07:23:32;27.30;32.00
21085;DHT22;34247;50.064;19.970;2022-09-27T07:24:36;27.40;31.90
21085;DHT22;34247;50.064;19.970;2022-09-27T07:25:39;27.40;31.80
21085;DHT22;34247;50.064;19.970;2022-09-27T07:26:43;27.40;31.70
21085;DHT22;34247;50.064;19.970;2022-09-27T07:27:46;27.40;31.70
21085;DHT22;34247;50.064;19.970;2022-09-27T07:28:50;27.50;31.80
21085;DHT22;34247;50.064;19.970;2022-09-27T07:29:55;27.50;31.70
21085;DHT22;34247;50.064;19.970;2022-09-27T07:30:59;27.60;31.70
21085;DHT22;34247;50.064;19.970;2022-09-27T07:32:04;27.60;31.80
21085;DHT22;34247;50.064;19.970;2022-09-27T07:33:08;27.60;31.80
21085;DHT22;34247;50.064;19.970;2022-09-27T07:34:12;27.70;31.90
21085;DHT22;34247;50.064;19.970;2022-09-27T07:35:16;27.80;32.10
21085;DHT22;34247;50.064;19.970;2022-09-27T07:36:20;27.80;32.00
21085;DHT22;34247;50.064;19.970;2022-09-27T07:37:23;27.90;32.10
21085;DHT22;34247;50.064;19.970;2022-09-27T07:38:27;27.90;32.10